sensor_id;sensor_type;location;lat;lon;timestamp;temperature;humidity
30174;DHT22;16985;50.814;8.530;2022-08-20T00:01:45;21.20;90.30
30174;DHT22;16985;50.814;8.530;2022-08-20T00:04:13;20.90;77.80
30174;DHT22;16985;50.814;8.530;2022-08-20T00:06:39;20.80;78.00
30174;DHT22;16985;50.814;8.530;2022-08-20T00:09:05;20.90;89.20
30174;DHT22;16985;50.814;8.530;2022-08-20T00:11:32;20.80;78.60
30174;DHT22;16985;50.814;8.530;2022-08-20T00:14:00;20.70;78.80
30174;DHT22;16985;50.814;8.530;2022-08-20T00:16:31;20.80;78.60
30174;DHT22;16985;50.814;8.530;2022-08-20T00:18:59;20.80;79.10
30174;DHT22;16985;50.814;8.530;2022-08-20T00:21:26;20.80;78.30
30174;DHT22;16985;50.814;8.530;2022-08-20T00:23:54;20.80;78.30
30174;DHT22;16985;50.814;8.530;2022-08-20T00:26:21;20.70;90.30
30174;DHT22;16985;50.814;8.530;2022-08-20T00:28:48;20.60;78.80
30174;DHT22;16985;50.814;8.530;2022-08-20T00:31:16;20.50;81.70
30174;DHT22;16985;50.814;8.530;2022-08-20T00:33:44;21.50;79.70
30174;DHT22;16985;50.814;8.530;2022-08-20T00:36:12;20.40;79.10
30174;DHT22;16985;50.814;8.530;2022-08-20T00:38:41;20.50;79.20
30174;DHT22;16985;50.814;8.530;2022-08-20T00:41:10;20.40;78.40
30174;DHT22;16985;50.814;8.530;2022-08-20T00:43:41;21.60;79.80
30174;DHT22;16985;50.814;8.530;2022-08-20T00:46:23;20.40;79.30
30174;DHT22;16985;50.814;8.530;2022-08-20T00:48:52;20.30;90.50
30174;DHT22;16985;50.814;8.530;2022-08-20T00:57:07;20.30;79.40
30174;DHT22;16985;50.814;8.530;2022-08-20T00:59:37;20.20;80.90
30174;DHT22;16985;50.814;8.530;2022-08-20T01:02:08;20.20;79.80
30174;DHT22;16985;50.814;8.530;2022-08-20T01:04:36;20.20;80.10
30174;DHT22;16985;50.814;8.530;2022-08-20T01:07:03;20.10;80.30
30174;DHT22;16985;50.814;8.530;2022-08-20T01:09:30;20.10;80.60
30174;DHT22;16985;50.814;8.530;2022-08-20T01:11:56;20.00;81.10
30174;DHT22;16985;50.814;8.530;2022-08-20T01:14:22;20.00;81.10
30174;DHT22;16985;50.814;8.530;2022-08-20T01:17:04;20.00;81.30
30174;DHT22;16985;50.814;8.530;2022-08-20T01:19:42;20.00;81.40
30174;DHT22;16985;50.814;8.530;2022-08-20T01:22:13;19.90;81.80
30174;DHT22;16985;50.814;8.530;2022-08-20T01:25:21;19.90;81.60
30174;DHT22;16985;50.814;8.530;2022-08-20T01:27:53;19.90;81.50
30174;DHT22;16985;50.814;8.530;2022-08-20T01:30:21;19.90;81.60
30174;DHT22;16985;50.814;8.530;2022-08-20T01:32:47;19.90;81.80
30174;DHT22;16985;50.814;8.530;2022-08-20T01:35:19;19.90;81.80
30174;DHT22;16985;50.814;8.530;2022-08-20T01:37:46;19.90;81.90
30174;DHT22;16985;50.814;8.530;2022-08-20T01:40:16;19.80;81.90
30174;DHT22;16985;50.814;8.530;2022-08-20T01:42:48;19.80;81.70
30174;DHT22;16985;50.814;8.530;2022-08-20T01:45:15;19.80;81.70
30174;DHT22;16985;50.814;8.530;2022-08-20T01:47:41;19.90;82.00
30174;DHT22;16985;50.814;8.530;2022-08-20T01:50:19;20.70;82.70
30174;DHT22;16985;50.814;8.530;2022-08-20T01:52:51;19.80;82.20
30174;DHT22;16985;50.814;8.530;2022-08-20T01:55:22;19.80;82.60
30174;DHT22;16985;50.814;8.530;2022-08-20T01:57:48;19.80;83.00
30174;DHT22;16985;50.814;8.530;2022-08-20T02:00:17;19.80;82.70
30174;DHT22;16985;50.814;8.530;2022-08-20T02:02:45;19.80;82.70
30174;DHT22;16985;50.814;8.530;2022-08-20T02:05:11;19.80;82.40
30174;DHT22;16985;50.814;8.530;2022-08-20T02:07:37;19.80;82.80
30174;DHT22;16985;50.814;8.530;2022-08-20T02:10:05;19.80;83.00
30174;DHT22;16985;50.814;8.530;2022-08-20T02:12:34;19.80;82.80
30174;DHT22;16985;50.814;8.530;2022-08-20T02:15:00;19.80;82.90
30174;DHT22;16985;50.814;8.530;2022-08-20T02:17:26;19.80;83.20
30174;DHT22;16985;50.814;8.530;2022-08-20T02:20:00;19.80;83.40
30174;DHT22;16985;50.814;8.530;2022-08-20T02:25:08;19.80;83.80
30174;DHT22;16985;50.814;8.530;2022-08-20T02:27:36;19.80;84.00
30174;DHT22;16985;50.814;8.530;2022-08-20T02:30:07;19.80;84.00
30174;DHT22;16985;50.814;8.530;2022-08-20T02:32:38;19.80;84.80
30174;DHT22;16985;50.814;8.530;2022-08-20T02:35:06;19.70;84.30
30174;DHT22;16985;50.814;8.530;2022-08-20T02:37:38;19.80;84.20
30174;DHT22;16985;50.814;8.530;2022-08-20T02:40:12;19.70;84.60
30174;DHT22;16985;50.814;8.530;2022-08-20T02:42:40;19.40;92.50
30174;DHT22;16985;50.814;8.530;2022-08-20T02:45:12;19.70;85.00
30174;DHT22;16985;50.814;8.530;2022-08-20T02:47:39;19.80;85.40
30174;DHT22;16985;50.814;8.530;2022-08-20T02:50:09;19.70;85.70
30174;DHT22;16985;50.814;8.530;2022-08-20T02:52:36;19.80;86.00
30174;DHT22;16985;50.814;8.530;2022-08-20T02:55:03;19.80;85.70
30174;DHT22;16985;50.814;8.530;2022-08-20T02:57:29;19.50;93.80
30174;DHT22;16985;50.814;8.530;2022-08-20T02:59:55;19.80;86.20
30174;DHT22;16985;50.814;8.530;2022-08-20T03:02:21;19.80;86.50
30174;DHT22;16985;50.814;8.530;2022-08-20T03:04:47;19.80;86.80
30174;DHT22;16985;50.814;8.530;2022-08-20T03:07:13;19.80;87.10
30174;DHT22;16985;50.814;8.530;2022-08-20T03:09:39;19.80;86.90
30174;DHT22;16985;50.814;8.530;2022-08-20T03:12:06;19.80;87.70
30174;DHT22;16985;50.814;8.530;2022-08-20T03:14:33;19.70;94.00
30174;DHT22;16985;50.814;8.530;2022-08-20T03:16:59;19.80;94.70
30174;DHT22;16985;50.814;8.530;2022-08-20T03:19:26;19.70;95.00
30174;DHT22;16985;50.814;8.530;2022-08-20T03:26:44;19.90;88.90
30174;DHT22;16985;50.814;8.530;2022-08-20T03:29:10;19.90;95.30
30174;DHT22;16985;50.814;8.530;2022-08-20T03:31:37;19.80;89.80
30174;DHT22;16985;50.814;8.530;2022-08-20T03:34:03;19.90;89.70
30174;DHT22;16985;50.814;8.530;2022-08-20T03:36:29;19.90;89.90
30174;DHT22;16985;50.814;8.530;2022-08-20T03:39:00;19.80;90.00
30174;DHT22;16985;50.814;8.530;2022-08-20T03:41:29;19.90;95.50
30174;DHT22;16985;50.814;8.530;2022-08-20T03:43:57;19.90;90.00
30174;DHT22;16985;50.814;8.530;2022-08-20T03:46:23;19.90;90.20
30174;DHT22;16985;50.814;8.530;2022-08-20T03:48:50;20.10;95.80
30174;DHT22;16985;50.814;8.530;2022-08-20T03:51:16;19.90;90.50
30174;DHT22;16985;50.814;8.530;2022-08-20T03:53:42;19.90;96.30
30174;DHT22;16985;50.814;8.530;2022-08-20T03:56:08;19.90;90.80
30174;DHT22;16985;50.814;8.530;2022-08-20T03:58:34;19.90;90.70
30174;DHT22;16985;50.814;8.530;2022-08-20T04:01:00;19.90;91.00
30174;DHT22;16985;50.814;8.530;2022-08-20T04:03:26;20.00;91.00
30174;DHT22;16985;50.814;8.530;2022-08-20T04:05:53;19.90;91.20
30174;DHT22;16985;50.814;8.530;2022-08-20T04:08:23;19.90;96.10
30174;DHT22;16985;50.814;8.530;2022-08-20T04:10:55;20.00;96.80
30174;DHT22;16985;50.814;8.530;2022-08-20T04:13:25;19.90;91.60
30174;DHT22;16985;50.814;8.530;2022-08-20T04:15:51;19.90;92.10
30174;DHT22;16985;50.814;8.530;2022-08-20T04:18:21;20.00;92.50
30174;DHT22;16985;50.814;8.530;2022-08-20T04:20:49;20.00;92.60
30174;DHT22;16985;50.814;8.530;2022-08-20T04:23:16;19.90;92.90
30174;DHT22;16985;50.814;8.530;2022-08-20T04:25:42;19.80;97.70
30174;DHT22;16985;50.814;8.530;2022-08-20T04:28:14;20.00;98.00
30174;DHT22;16985;50.814;8.530;2022-08-20T04:30:49;20.00;93.00
30174;DHT22;16985;50.814;8.530;2022-08-20T04:35:43;19.90;92.50
30174;DHT22;16985;50.814;8.530;2022-08-20T04:38:13;19.90;92.80
30174;DHT22;16985;50.814;8.530;2022-08-20T04:40:40;20.00;97.90
30174;DHT22;16985;50.814;8.530;2022-08-20T04:43:23;20.00;92.90
30174;DHT22;16985;50.814;8.530;2022-08-20T04:45:52;19.90;93.70
30174;DHT22;16985;50.814;8.530;2022-08-20T04:48:19;19.90;93.60
30174;DHT22;16985;50.814;8.530;2022-08-20T04:53:15;20.00;99.50
30174;DHT22;16985;50.814;8.530;2022-08-20T04:55:44;19.80;98.10
30174;DHT22;16985;50.814;8.530;2022-08-20T04:58:45;19.70;98.20
30174;DHT22;16985;50.814;8.530;2022-08-20T05:01:07;20.00;99.20
30174;DHT22;16985;50.814;8.530;2022-08-20T05:03:38;19.80;99.10
30174;DHT22;16985;50.814;8.530;2022-08-20T05:06:07;19.80;94.10
30174;DHT22;16985;50.814;8.530;2022-08-20T05:08:34;19.80;94.30
30174;DHT22;16985;50.814;8.530;2022-08-20T05:11:03;19.60;94.10
30174;DHT22;16985;50.814;8.530;2022-08-20T05:20:53;19.90;94.10
30174;DHT22;16985;50.814;8.530;2022-08-20T05:23:20;19.90;94.60
30174;DHT22;16985;50.814;8.530;2022-08-20T05:25:47;20.00;99.90
30174;DHT22;16985;50.814;8.530;2022-08-20T05:28:22;19.90;99.90
30174;DHT22;16985;50.814;8.530;2022-08-20T05:30:50;19.90;99.90
30174;DHT22;16985;50.814;8.530;2022-08-20T05:33:18;20.00;94.60
30174;DHT22;16985;50.814;8.530;2022-08-20T05:35:47;19.40;99.60
30174;DHT22;16985;50.814;8.530;2022-08-20T05:38:16;20.00;94.80
30174;DHT22;16985;50.814;8.530;2022-08-20T05:40:44;20.00;95.30
30174;DHT22;16985;50.814;8.530;2022-08-20T05:43:10;20.00;95.60
30174;DHT22;16985;50.814;8.530;2022-08-20T05:45:38;20.00;96.00
30174;DHT22;16985;50.814;8.530;2022-08-20T05:48:11;20.00;95.90
30174;DHT22;16985;50.814;8.530;2022-08-20T05:50:39;20.00;95.50
30174;DHT22;16985;50.814;8.530;2022-08-20T05:53:06;20.00;95.70
30174;DHT22;16985;50.814;8.530;2022-08-20T05:55:32;20.00;95.70
30174;DHT22;16985;50.814;8.530;2022-08-20T05:58:01;20.10;95.30
30174;DHT22;16985;50.814;8.530;2022-08-20T06:00:30;20.00;95.50
30174;DHT22;16985;50.814;8.530;2022-08-20T06:05:43;20.00;95.20
30174;DHT22;16985;50.814;8.530;2022-08-20T06:08:10;20.10;95.20
30174;DHT22;16985;50.814;8.530;2022-08-20T06:10:38;20.10;95.40
30174;DHT22;16985;50.814;8.530;2022-08-20T06:13:04;20.10;95.60
30174;DHT22;16985;50.814;8.530;2022-08-20T06:15:32;19.70;99.90
30174;DHT22;16985;50.814;8.530;2022-08-20T06:17:58;20.20;99.90
30174;DHT22;16985;50.814;8.530;2022-08-20T06:20:25;20.10;95.80
30174;DHT22;16985;50.814;8.530;2022-08-20T06:22:53;20.20;95.90
30174;DHT22;16985;50.814;8.530;2022-08-20T06:27:46;20.00;99.90
30174;DHT22;16985;50.814;8.530;2022-08-20T06:30:14;20.30;95.10
30174;DHT22;16985;50.814;8.530;2022-08-20T06:32:41;20.20;95.30
30174;DHT22;16985;50.814;8.530;2022-08-20T06:35:08;20.40;96.00
30174;DHT22;16985;50.814;8.530;2022-08-20T06:37:36;20.50;95.90
30174;DHT22;16985;50.814;8.530;2022-08-20T06:40:11;20.50;95.80
30174;DHT22;16985;50.814;8.530;2022-08-20T06:42:41;20.50;95.50
30174;DHT22;16985;50.814;8.530;2022-08-20T06:45:13;20.50;95.20
30174;DHT22;16985;50.814;8.530;2022-08-20T06:47:42;20.60;97.80
30174;DHT22;16985;50.814;8.530;2022-08-20T06:50:17;20.60;94.40
30174;DHT22;16985;50.814;8.530;2022-08-20T06:52:45;20.70;99.70
30174;DHT22;16985;50.814;8.530;2022-08-20T06:55:12;20.70;95.70
30174;DHT22;16985;50.814;8.530;2022-08-20T06:57:39;20.80;96.70
30174;DHT22;16985;50.814;8.530;2022-08-20T07:00:10;20.60;98.60
30174;DHT22;16985;50.814;8.530;2022-08-20T07:02:39;20.70;94.10
30174;DHT22;16985;50.814;8.530;2022-08-20T07:05:05;20.60;95.70
30174;DHT22;16985;50.814;8.530;2022-08-20T07:07:32;20.70;93.80
30174;DHT22;16985;50.814;8.530;2022-08-20T07:10:00;20.70;93.50
30174;DHT22;16985;50.814;8.530;2022-08-20T07:14:59;20.70;93.40
30174;DHT22;16985;50.814;8.530;2022-08-20T07:19:51;20.70;92.90
30174;DHT22;16985;50.814;8.530;2022-08-20T07:22:17;20.70;93.10
30174;DHT22;16985;50.814;8.530;2022-08-20T07:24:42;20.80;93.00
30174;DHT22;16985;50.814;8.530;2022-08-20T07:27:08;20.80;93.10
30174;DHT22;16985;50.814;8.530;2022-08-20T07:29:34;20.90;92.70
30174;DHT22;16985;50.814;8.530;2022-08-20T07:32:18;20.90;92.50
30174;DHT22;16985;50.814;8.530;2022-08-20T07:37:28;21.00;91.90
30174;DHT22;16985;50.814;8.530;2022-08-20T07:39:54;21.70;97.70
30174;DHT22;16985;50.814;8.530;2022-08-20T07:42:20;20.50;96.20
30174;DHT22;16985;50.814;8.530;2022-08-20T07:44:47;21.20;91.30
30174;DHT22;16985;50.814;8.530;2022-08-20T07:47:17;20.60;96.20
30174;DHT22;16985;50.814;8.530;2022-08-20T07:49:43;21.00;93.60
30174;DHT22;16985;50.814;8.530;2022-08-20T07:54:38;21.40;90.40
30174;DHT22;16985;50.814;8.530;2022-08-20T07:59:31;21.70;94.60
30174;DHT22;16985;50.814;8.530;2022-08-20T08:01:57;21.80;95.10
30174;DHT22;16985;50.814;8.530;2022-08-20T08:04:23;21.90;95.60
30174;DHT22;16985;50.814;8.530;2022-08-20T08:06:50;21.70;90.60
30174;DHT22;16985;50.814;8.530;2022-08-20T08:09:17;21.80;94.80
30174;DHT22;16985;50.814;8.530;2022-08-20T08:11:48;22.00;88.90
30174;DHT22;16985;50.814;8.530;2022-08-20T08:14:20;21.90;88.00
30174;DHT22;16985;50.814;8.530;2022-08-20T08:16:48;22.00;87.60
30174;DHT22;16985;50.814;8.530;2022-08-20T08:19:15;22.30;90.70
30174;DHT22;16985;50.814;8.530;2022-08-20T08:21:42;22.10;87.80
30174;DHT22;16985;50.814;8.530;2022-08-20T08:24:09;22.20;87.70
30174;DHT22;16985;50.814;8.530;2022-08-20T08:26:36;22.30;91.70
30174;DHT22;16985;50.814;8.530;2022-08-20T08:29:02;22.30;86.70
30174;DHT22;16985;50.814;8.530;2022-08-20T08:31:32;21.00;85.60
30174;DHT22;16985;50.814;8.530;2022-08-20T08:33:58;22.60;93.60
30174;DHT22;16985;50.814;8.530;2022-08-20T08:38:51;22.30;91.10
30174;DHT22;16985;50.814;8.530;2022-08-20T08:44:23;22.70;83.30
30174;DHT22;16985;50.814;8.530;2022-08-20T08:46:55;22.70;82.90
30174;DHT22;16985;50.814;8.530;2022-08-20T08:49:25;22.70;82.70
30174;DHT22;16985;50.814;8.530;2022-08-20T08:52:01;22.70;82.60
30174;DHT22;16985;50.814;8.530;2022-08-20T08:54:30;22.90;82.60
30174;DHT22;16985;50.814;8.530;2022-08-20T08:59:27;22.70;90.50
30174;DHT22;16985;50.814;8.530;2022-08-20T09:01:56;22.80;84.90
30174;DHT22;16985;50.814;8.530;2022-08-20T09:04:31;24.50;83.90
30174;DHT22;16985;50.814;8.530;2022-08-20T09:07:07;22.80;83.40
30174;DHT22;16985;50.814;8.530;2022-08-20T09:09:37;22.60;92.00
30174;DHT22;16985;50.814;8.530;2022-08-20T09:12:10;22.90;82.60
30174;DHT22;16985;50.814;8.530;2022-08-20T09:14:38;22.80;92.00
30174;DHT22;16985;50.814;8.530;2022-08-20T09:19:30;23.20;91.80
30174;DHT22;16985;50.814;8.530;2022-08-20T09:21:56;22.90;83.40
30174;DHT22;16985;50.814;8.530;2022-08-20T09:24:22;22.90;84.60
30174;DHT22;16985;50.814;8.530;2022-08-20T09:26:49;22.80;87.20
30174;DHT22;16985;50.814;8.530;2022-08-20T09:29:14;22.70;87.50
30174;DHT22;16985;50.814;8.530;2022-08-20T09:31:41;22.70;89.90
30174;DHT22;16985;50.814;8.530;2022-08-20T09:34:07;22.60;90.60
30174;DHT22;16985;50.814;8.530;2022-08-20T09:36:33;22.50;91.10
30174;DHT22;16985;50.814;8.530;2022-08-20T09:39:00;22.40;91.20
30174;DHT22;16985;50.814;8.530;2022-08-20T09:41:26;22.30;91.40
30174;DHT22;16985;50.814;8.530;2022-08-20T09:43:51;22.30;92.00
30174;DHT22;16985;50.814;8.530;2022-08-20T09:46:17;22.20;92.40
30174;DHT22;16985;50.814;8.530;2022-08-20T09:48:43;22.20;92.80
30174;DHT22;16985;50.814;8.530;2022-08-20T09:51:09;22.10;93.10
30174;DHT22;16985;50.814;8.530;2022-08-20T09:53:35;23.20;93.50
30174;DHT22;16985;50.814;8.530;2022-08-20T09:56:00;22.10;93.60
30174;DHT22;16985;50.814;8.530;2022-08-20T09:58:56;22.10;93.60
30174;DHT22;16985;50.814;8.530;2022-08-20T10:01:22;22.10;93.80
30174;DHT22;16985;50.814;8.530;2022-08-20T10:03:48;22.20;93.70
30174;DHT22;16985;50.814;8.530;2022-08-20T10:06:16;22.20;93.80
30174;DHT22;16985;50.814;8.530;2022-08-20T10:08:44;22.20;93.90
30174;DHT22;16985;50.814;8.530;2022-08-20T10:11:10;22.20;94.00
30174;DHT22;16985;50.814;8.530;2022-08-20T10:13:36;22.30;94.20
30174;DHT22;16985;50.814;8.530;2022-08-20T10:16:02;22.40;94.60
30174;DHT22;16985;50.814;8.530;2022-08-20T10:18:28;22.50;95.10
30174;DHT22;16985;50.814;8.530;2022-08-20T10:20:53;22.40;93.90
30174;DHT22;16985;50.814;8.530;2022-08-20T10:23:19;22.50;93.20
30174;DHT22;16985;50.814;8.530;2022-08-20T10:25:45;23.40;93.30
30174;DHT22;16985;50.814;8.530;2022-08-20T10:28:11;22.50;92.90
30174;DHT22;16985;50.814;8.530;2022-08-20T10:30:37;22.50;92.40
30174;DHT22;16985;50.814;8.530;2022-08-20T10:33:03;22.50;92.50
30174;DHT22;16985;50.814;8.530;2022-08-20T10:35:29;22.50;92.20
30174;DHT22;16985;50.814;8.530;2022-08-20T10:37:55;22.50;92.30
30174;DHT22;16985;50.814;8.530;2022-08-20T10:40:21;22.60;92.30
30174;DHT22;16985;50.814;8.530;2022-08-20T10:42:46;22.60;92.30
30174;DHT22;16985;50.814;8.530;2022-08-20T10:45:14;22.70;92.20
30174;DHT22;16985;50.814;8.530;2022-08-20T10:47:40;22.80;91.70
30174;DHT22;16985;50.814;8.530;2022-08-20T10:50:10;22.80;91.60
30174;DHT22;16985;50.814;8.530;2022-08-20T10:52:37;22.90;91.00
30174;DHT22;16985;50.814;8.530;2022-08-20T10:55:04;22.90;90.60
30174;DHT22;16985;50.814;8.530;2022-08-20T10:57:31;23.00;90.60
30174;DHT22;16985;50.814;8.530;2022-08-20T11:00:00;23.10;90.40
30174;DHT22;16985;50.814;8.530;2022-08-20T11:02:27;23.10;90.20
30174;DHT22;16985;50.814;8.530;2022-08-20T11:04:53;23.20;89.40
30174;DHT22;16985;50.814;8.530;2022-08-20T11:07:35;23.20;88.10
30174;DHT22;16985;50.814;8.530;2022-08-20T11:10:06;23.30;87.10
30174;DHT22;16985;50.814;8.530;2022-08-20T11:12:33;23.30;86.90
30174;DHT22;16985;50.814;8.530;2022-08-20T11:14:58;23.40;86.90
30174;DHT22;16985;50.814;8.530;2022-08-20T11:17:31;23.50;87.20
30174;DHT22;16985;50.814;8.530;2022-08-20T11:20:01;23.80;87.10
30174;DHT22;16985;50.814;8.530;2022-08-20T11:22:29;23.70;86.90
30174;DHT22;16985;50.814;8.530;2022-08-20T11:24:54;24.30;87.70
30174;DHT22;16985;50.814;8.530;2022-08-20T11:27:28;24.10;85.50
30174;DHT22;16985;50.814;8.530;2022-08-20T11:29:57;24.50;83.40
30174;DHT22;16985;50.814;8.530;2022-08-20T11:32:23;24.70;81.30
30174;DHT22;16985;50.814;8.530;2022-08-20T11:34:49;25.30;80.00
30174;DHT22;16985;50.814;8.530;2022-08-20T11:37:18;25.30;78.00
30174;DHT22;16985;50.814;8.530;2022-08-20T11:39:45;25.60;77.00
30174;DHT22;16985;50.814;8.530;2022-08-20T11:42:11;25.80;75.60
30174;DHT22;16985;50.814;8.530;2022-08-20T11:44:37;26.00;74.80
30174;DHT22;16985;50.814;8.530;2022-08-20T11:47:04;26.00;73.80
30174;DHT22;16985;50.814;8.530;2022-08-20T11:49:32;26.10;73.10
30174;DHT22;16985;50.814;8.530;2022-08-20T11:51:58;26.20;72.90
30174;DHT22;16985;50.814;8.530;2022-08-20T11:54:24;26.30;72.70
30174;DHT22;16985;50.814;8.530;2022-08-20T11:56:53;26.40;71.40
30174;DHT22;16985;50.814;8.530;2022-08-20T11:59:22;26.80;70.90
30174;DHT22;16985;50.814;8.530;2022-08-20T12:01:49;26.70;70.20
30174;DHT22;16985;50.814;8.530;2022-08-20T12:04:15;26.80;67.60
30174;DHT22;16985;50.814;8.530;2022-08-20T12:06:40;26.90;65.70
30174;DHT22;16985;50.814;8.530;2022-08-20T12:09:06;27.20;71.80
30174;DHT22;16985;50.814;8.530;2022-08-20T12:11:32;27.00;65.10
30174;DHT22;16985;50.814;8.530;2022-08-20T12:18:50;27.30;73.00
30174;DHT22;16985;50.814;8.530;2022-08-20T12:21:17;27.30;62.40
30174;DHT22;16985;50.814;8.530;2022-08-20T12:23:42;27.30;63.00
30174;DHT22;16985;50.814;8.530;2022-08-20T12:26:08;27.40;63.50
30174;DHT22;16985;50.814;8.530;2022-08-20T12:28:34;27.40;63.20
30174;DHT22;16985;50.814;8.530;2022-08-20T12:31:00;27.70;75.20
30174;DHT22;16985;50.814;8.530;2022-08-20T12:38:18;27.20;61.10
30174;DHT22;16985;50.814;8.530;2022-08-20T12:40:44;27.70;61.60
30174;DHT22;16985;50.814;8.530;2022-08-20T12:43:13;27.70;61.50
30174;DHT22;16985;50.814;8.530;2022-08-20T12:45:39;27.60;59.80
30174;DHT22;16985;50.814;8.530;2022-08-20T12:48:08;27.60;59.60
30174;DHT22;16985;50.814;8.530;2022-08-20T12:50:37;27.50;59.70
30174;DHT22;16985;50.814;8.530;2022-08-20T12:53:05;27.50;59.60
30174;DHT22;16985;50.814;8.530;2022-08-20T12:55:34;27.50;59.50
30174;DHT22;16985;50.814;8.530;2022-08-20T12:58:02;27.50;59.10
30174;DHT22;16985;50.814;8.530;2022-08-20T13:00:32;27.70;59.50
30174;DHT22;16985;50.814;8.530;2022-08-20T13:03:10;27.40;57.80
30174;DHT22;16985;50.814;8.530;2022-08-20T13:05:37;28.20;56.10
30174;DHT22;16985;50.814;8.530;2022-08-20T13:08:10;28.30;55.00
30174;DHT22;16985;50.814;8.530;2022-08-20T13:10:38;28.30;55.50
30174;DHT22;16985;50.814;8.530;2022-08-20T13:13:09;28.60;55.10
30174;DHT22;16985;50.814;8.530;2022-08-20T13:15:36;28.60;55.20
30174;DHT22;16985;50.814;8.530;2022-08-20T13:18:05;28.80;55.20
30174;DHT22;16985;50.814;8.530;2022-08-20T13:20:31;29.00;55.40
30174;DHT22;16985;50.814;8.530;2022-08-20T13:23:04;29.10;54.90
30174;DHT22;16985;50.814;8.530;2022-08-20T13:25:30;29.00;54.10
30174;DHT22;16985;50.814;8.530;2022-08-20T13:27:59;28.90;58.40
30174;DHT22;16985;50.814;8.530;2022-08-20T13:30:26;29.10;56.00
30174;DHT22;16985;50.814;8.530;2022-08-20T13:32:52;29.10;53.60
30174;DHT22;16985;50.814;8.530;2022-08-20T13:35:18;29.10;53.80
30174;DHT22;16985;50.814;8.530;2022-08-20T13:37:44;29.10;54.00
30174;DHT22;16985;50.814;8.530;2022-08-20T13:40:10;29.10;53.60
30174;DHT22;16985;50.814;8.530;2022-08-20T13:42:36;29.10;53.50
30174;DHT22;16985;50.814;8.530;2022-08-20T13:45:03;29.20;53.30
30174;DHT22;16985;50.814;8.530;2022-08-20T13:47:31;29.20;52.80
30174;DHT22;16985;50.814;8.530;2022-08-20T13:50:13;29.30;52.80
30174;DHT22;16985;50.814;8.530;2022-08-20T13:52:44;29.40;53.20
30174;DHT22;16985;50.814;8.530;2022-08-20T13:55:12;29.40;52.80
30174;DHT22;16985;50.814;8.530;2022-08-20T13:57:40;29.40;52.40
30174;DHT22;16985;50.814;8.530;2022-08-20T14:00:08;29.40;52.50
30174;DHT22;16985;50.814;8.530;2022-08-20T14:02:37;29.30;51.60
30174;DHT22;16985;50.814;8.530;2022-08-20T14:05:03;29.20;50.50
30174;DHT22;16985;50.814;8.530;2022-08-20T14:07:29;29.20;50.90
30174;DHT22;16985;50.814;8.530;2022-08-20T14:10:02;29.10;51.50
30174;DHT22;16985;50.814;8.530;2022-08-20T14:12:30;29.00;51.20
30174;DHT22;16985;50.814;8.530;2022-08-20T14:14:56;29.00;51.50
30174;DHT22;16985;50.814;8.530;2022-08-20T14:19:56;28.90;51.40
30174;DHT22;16985;50.814;8.530;2022-08-20T14:22:24;28.80;51.80
30174;DHT22;16985;50.814;8.530;2022-08-20T14:24:51;28.80;52.50
30174;DHT22;16985;50.814;8.530;2022-08-20T14:27:19;28.80;52.40
30174;DHT22;16985;50.814;8.530;2022-08-20T14:29:47;28.80;52.50
30174;DHT22;16985;50.814;8.530;2022-08-20T14:32:13;29.00;52.50
30174;DHT22;16985;50.814;8.530;2022-08-20T14:34:40;29.00;50.60
30174;DHT22;16985;50.814;8.530;2022-08-20T14:37:23;29.00;50.70
30174;DHT22;16985;50.814;8.530;2022-08-20T14:39:54;29.20;51.10
30174;DHT22;16985;50.814;8.530;2022-08-20T14:42:22;29.20;51.50
30174;DHT22;16985;50.814;8.530;2022-08-20T14:44:49;29.20;50.50
30174;DHT22;16985;50.814;8.530;2022-08-20T14:47:25;29.20;49.70
30174;DHT22;16985;50.814;8.530;2022-08-20T14:49:54;29.20;49.80
30174;DHT22;16985;50.814;8.530;2022-08-20T14:52:23;29.00;49.70
30174;DHT22;16985;50.814;8.530;2022-08-20T14:54:50;28.90;50.00
30174;DHT22;16985;50.814;8.530;2022-08-20T14:57:18;28.80;50.30
30174;DHT22;16985;50.814;8.530;2022-08-20T14:59:44;28.80;51.10
30174;DHT22;16985;50.814;8.530;2022-08-20T15:02:13;28.80;51.30
30174;DHT22;16985;50.814;8.530;2022-08-20T15:04:40;28.70;51.80
30174;DHT22;16985;50.814;8.530;2022-08-20T15:07:13;28.60;52.30
30174;DHT22;16985;50.814;8.530;2022-08-20T15:09:40;28.50;52.60
30174;DHT22;16985;50.814;8.530;2022-08-20T15:12:06;28.50;53.10
30174;DHT22;16985;50.814;8.530;2022-08-20T15:14:32;28.50;53.10
30174;DHT22;16985;50.814;8.530;2022-08-20T15:16:57;28.40;53.20
30174;DHT22;16985;50.814;8.530;2022-08-20T15:19:23;28.50;53.00
30174;DHT22;16985;50.814;8.530;2022-08-20T15:21:49;28.60;53.00
30174;DHT22;16985;50.814;8.530;2022-08-20T15:24:15;28.60;52.80
30174;DHT22;16985;50.814;8.530;2022-08-20T15:26:41;28.70;52.50
30174;DHT22;16985;50.814;8.530;2022-08-20T15:29:07;28.70;52.40
30174;DHT22;16985;50.814;8.530;2022-08-20T15:31:33;28.80;55.20
30174;DHT22;16985;50.814;8.530;2022-08-20T15:33:59;28.80;52.00
30174;DHT22;16985;50.814;8.530;2022-08-20T15:36:25;28.80;52.30
30174;DHT22;16985;50.814;8.530;2022-08-20T15:38:51;28.70;52.50
30174;DHT22;16985;50.814;8.530;2022-08-20T15:41:16;28.70;52.70
30174;DHT22;16985;50.814;8.530;2022-08-20T15:43:42;28.40;52.80
30174;DHT22;16985;50.814;8.530;2022-08-20T15:46:08;28.70;53.10
30174;DHT22;16985;50.814;8.530;2022-08-20T15:48:40;28.60;53.20
30174;DHT22;16985;50.814;8.530;2022-08-20T15:51:21;28.60;53.10
30174;DHT22;16985;50.814;8.530;2022-08-20T16:01:46;28.30;52.30
30174;DHT22;16985;50.814;8.530;2022-08-20T16:04:58;28.30;52.40
30174;DHT22;16985;50.814;8.530;2022-08-20T16:08:11;28.20;52.60
30174;DHT22;16985;50.814;8.530;2022-08-20T16:10:42;28.10;52.70
30174;DHT22;16985;50.814;8.530;2022-08-20T16:13:32;28.00;52.80
30174;DHT22;16985;50.814;8.530;2022-08-20T16:16:03;27.90;53.40
30174;DHT22;16985;50.814;8.530;2022-08-20T16:18:34;27.80;53.30
30174;DHT22;16985;50.814;8.530;2022-08-20T16:21:06;27.70;53.50
30174;DHT22;16985;50.814;8.530;2022-08-20T16:23:37;27.70;54.00
30174;DHT22;16985;50.814;8.530;2022-08-20T16:29:19;27.40;54.20
30174;DHT22;16985;50.814;8.530;2022-08-20T16:32:09;27.30;54.70
30174;DHT22;16985;50.814;8.530;2022-08-20T16:34:48;27.20;54.80
30174;DHT22;16985;50.814;8.530;2022-08-20T16:37:35;27.50;55.10
30174;DHT22;16985;50.814;8.530;2022-08-20T16:42:46;27.00;55.20
30174;DHT22;16985;50.814;8.530;2022-08-20T16:45:28;26.90;55.40
30174;DHT22;16985;50.814;8.530;2022-08-20T16:48:03;26.90;55.60
30174;DHT22;16985;50.814;8.530;2022-08-20T16:50:39;26.80;55.40
30174;DHT22;16985;50.814;8.530;2022-08-20T16:53:18;26.80;55.40
30174;DHT22;16985;50.814;8.530;2022-08-20T16:55:46;26.80;55.20
30174;DHT22;16985;50.814;8.530;2022-08-20T16:58:13;26.80;55.40
30174;DHT22;16985;50.814;8.530;2022-08-20T17:00:39;26.70;55.50